PWSweather.com
Personal Weather Stations
Station Observations
KCAOCEAN4
Jeffries Ranch, Oceanside, CA 92057

Jeffries RanchOceanside, CA 92057

Lat: 33.2463208, Lon: -117.25335080000002

Elevation: 207

Station Type: Davis Vantage Vue

jeffriesranchweather.com

High Low Average
Temperature 86.5°F30.3°C 49.3°F9.6°C 63.4°F17.4°C
Dew Point 50.0°F10.0°C 39.0°F3.9°C 45.0°F7.2°C
Winds 6.0 mph 9.7 kmh Calm Calm 3.0 mph E4.8 kmh E
Wind Gusts 11.0 mph17.7 kmh -- 6.0 mph9.7 kmh
Humidity 96% 20% 57%
Pressure 30.11 in1019.6 mb 29.98 in1015.2 mb -
Precipitation 0.00 in0.0 mm - -
Hour Temp Dew Point Humidity Winds Wind Gusts Pressure Precip Precip Rate Daily Precip Total
12:05 AM 50.5°F10.3°C 49.5°F9.7°C 96% 2.9 mph SE4.7 kmh SE 6.0 mph9.7 kmh 30.07 in1018.3 mb 0.00 in0.0 mm 0.00 in0.0 mm 0.00 in0.0 mm
12:15 AM 50.7°F10.4°C 49.6°F9.8°C 96% 2.9 mph ENE4.7 kmh ENE 9.0 mph14.5 kmh 30.07 in1018.3 mb 0.00 in0.0 mm 0.00 in0.0 mm 0.00 in0.0 mm
12:25 AM 51.1°F10.6°C 49.6°F9.8°C 95% 4.9 mph ENE7.9 kmh ENE 10.1 mph16.3 kmh 30.07 in1018.3 mb 0.00 in0.0 mm 0.00 in0.0 mm 0.00 in0.0 mm
12:35 AM 51.3°F10.7°C 49.6°F9.8°C 94% 4.9 mph E7.9 kmh E 8.9 mph14.3 kmh 30.07 in1018.3 mb 0.00 in0.0 mm 0.00 in0.0 mm 0.00 in0.0 mm
12:45 AM 51.6°F10.9°C 49.5°F9.7°C 92% 4.9 mph NE7.9 kmh NE 8.9 mph14.3 kmh 30.06 in1017.9 mb 0.00 in0.0 mm 0.00 in0.0 mm 0.00 in0.0 mm
12:55 AM 52.2°F11.2°C 49.3°F9.6°C 90% 4.9 mph E7.9 kmh E 8.9 mph14.3 kmh 30.06 in1017.9 mb 0.00 in0.0 mm 0.00 in0.0 mm 0.00 in0.0 mm
01:05 AM 52.0°F11.1°C 48.2°F9.0°C 87% 4.0 mph ENE6.4 kmh ENE 8.1 mph13.0 kmh 30.07 in1018.3 mb 0.00 in0.0 mm 0.00 in0.0 mm 0.00 in0.0 mm
01:15 AM 51.4°F10.8°C 47.7°F8.7°C 87% 4.0 mph E6.4 kmh E 8.9 mph14.3 kmh 30.07 in1018.3 mb 0.00 in0.0 mm 0.00 in0.0 mm 0.00 in0.0 mm
01:25 AM 51.6°F10.9°C 47.8°F8.8°C 87% 4.0 mph NE6.4 kmh NE 10.1 mph16.3 kmh 30.07 in1018.3 mb 0.00 in0.0 mm 0.00 in0.0 mm 0.00 in0.0 mm
01:35 AM 51.4°F10.8°C 47.7°F8.7°C 87% 4.9 mph E7.9 kmh E 11.0 mph17.7 kmh 30.07 in1018.3 mb 0.00 in0.0 mm 0.00 in0.0 mm 0.00 in0.0 mm
01:45 AM 51.4°F10.8°C 47.5°F8.6°C 86% 4.9 mph ENE7.9 kmh ENE 8.1 mph13.0 kmh 30.07 in1018.3 mb 0.00 in0.0 mm 0.00 in0.0 mm 0.00 in0.0 mm
01:55 AM 51.4°F10.8°C 47.5°F8.6°C 86% 4.9 mph E7.9 kmh E 8.1 mph13.0 kmh 30.07 in1018.3 mb 0.00 in0.0 mm 0.00 in0.0 mm 0.00 in0.0 mm
02:05 AM 51.4°F10.8°C 47.1°F8.4°C 85% 4.9 mph ENE7.9 kmh ENE 8.9 mph14.3 kmh 30.07 in1018.3 mb 0.00 in0.0 mm 0.00 in0.0 mm 0.00 in0.0 mm
02:15 AM 50.5°F10.3°C 46.6°F8.1°C 86% 4.9 mph ENE7.9 kmh ENE 8.1 mph13.0 kmh 30.07 in1018.3 mb 0.00 in0.0 mm 0.00 in0.0 mm 0.00 in0.0 mm
02:25 AM 51.3°F10.7°C 46.9°F8.3°C 85% 4.9 mph ENE7.9 kmh ENE 8.1 mph13.0 kmh 30.07 in1018.3 mb 0.00 in0.0 mm 0.00 in0.0 mm 0.00 in0.0 mm
02:35 AM 51.3°F10.7°C 46.6°F8.1°C 84% 4.9 mph ENE7.9 kmh ENE 8.1 mph13.0 kmh 30.07 in1018.3 mb 0.00 in0.0 mm 0.00 in0.0 mm 0.00 in0.0 mm
02:45 AM 51.4°F10.8°C 46.4°F8.0°C 83% 4.0 mph E6.4 kmh E 8.1 mph13.0 kmh 30.07 in1018.3 mb 0.00 in0.0 mm 0.00 in0.0 mm 0.00 in0.0 mm
02:55 AM 51.4°F10.8°C 46.2°F7.9°C 82% 4.9 mph NE7.9 kmh NE 8.9 mph14.3 kmh 30.07 in1018.3 mb 0.00 in0.0 mm 0.00 in0.0 mm 0.00 in0.0 mm
03:05 AM 51.3°F10.7°C 46.0°F7.8°C 82% 4.9 mph E7.9 kmh E 9.0 mph14.5 kmh 30.06 in1017.9 mb 0.00 in0.0 mm 0.00 in0.0 mm 0.00 in0.0 mm
03:15 AM 52.2°F11.2°C 46.2°F7.9°C 80% 4.9 mph ENE7.9 kmh ENE 10.1 mph16.3 kmh 30.06 in1017.9 mb 0.00 in0.0 mm 0.00 in0.0 mm 0.00 in0.0 mm
03:25 AM 51.3°F10.7°C 46.0°F7.8°C 82% 4.9 mph ENE7.9 kmh ENE 8.9 mph14.3 kmh 30.06 in1017.9 mb 0.00 in0.0 mm 0.00 in0.0 mm 0.00 in0.0 mm
03:35 AM 51.3°F10.7°C 45.7°F7.6°C 81% 4.9 mph E7.9 kmh E 9.0 mph14.5 kmh 30.06 in1017.9 mb 0.00 in0.0 mm 0.00 in0.0 mm 0.00 in0.0 mm
03:45 AM 51.4°F10.8°C 45.5°F7.5°C 80% 6.0 mph ENE9.7 kmh ENE 9.0 mph14.5 kmh 30.06 in1017.9 mb 0.00 in0.0 mm 0.00 in0.0 mm 0.00 in0.0 mm
03:55 AM 51.6°F10.9°C 45.0°F7.2°C 78% 6.0 mph E9.7 kmh E 8.9 mph14.3 kmh 30.06 in1017.9 mb 0.00 in0.0 mm 0.00 in0.0 mm 0.00 in0.0 mm
04:05 AM 51.3°F10.7°C 45.0°F7.2°C 79% 4.0 mph E6.4 kmh E 6.0 mph9.7 kmh 30.06 in1017.9 mb 0.00 in0.0 mm 0.00 in0.0 mm 0.00 in0.0 mm
04:15 AM 51.4°F10.8°C 45.1°F7.3°C 79% 4.9 mph ENE7.9 kmh ENE 8.1 mph13.0 kmh 30.05 in1017.6 mb 0.00 in0.0 mm 0.00 in0.0 mm 0.00 in0.0 mm
04:25 AM 51.1°F10.6°C 44.8°F7.1°C 79% 4.9 mph E7.9 kmh E 10.1 mph16.3 kmh 30.06 in1017.9 mb 0.00 in0.0 mm 0.00 in0.0 mm 0.00 in0.0 mm
04:35 AM 50.4°F10.2°C 44.4°F6.9°C 80% 4.9 mph NE7.9 kmh NE 8.1 mph13.0 kmh 30.06 in1017.9 mb 0.00 in0.0 mm 0.00 in0.0 mm 0.00 in0.0 mm
04:45 AM 50.2°F10.1°C 44.2°F6.8°C 80% 4.9 mph ENE7.9 kmh ENE 8.1 mph13.0 kmh 30.06 in1017.9 mb 0.00 in0.0 mm 0.00 in0.0 mm 0.00 in0.0 mm
04:55 AM 50.2°F10.1°C 44.2°F6.8°C 80% 4.0 mph ENE6.4 kmh ENE 6.9 mph11.1 kmh 30.06 in1017.9 mb 0.00 in0.0 mm 0.00 in0.0 mm 0.00 in0.0 mm
05:05 AM 50.2°F10.1°C 44.2°F6.8°C 80% 2.9 mph ENE4.7 kmh ENE 4.9 mph7.9 kmh 30.06 in1017.9 mb 0.00 in0.0 mm 0.00 in0.0 mm 0.00 in0.0 mm
05:15 AM 50.5°F10.3°C 44.2°F6.8°C 79% 4.0 mph E6.4 kmh E 6.9 mph11.1 kmh 30.06 in1017.9 mb 0.00 in0.0 mm 0.00 in0.0 mm 0.00 in0.0 mm
05:25 AM 50.7°F10.4°C 44.1°F6.7°C 78% 4.0 mph ENE6.4 kmh ENE 6.9 mph11.1 kmh 30.07 in1018.3 mb 0.00 in0.0 mm 0.00 in0.0 mm 0.00 in0.0 mm
05:35 AM 50.9°F10.5°C 43.9°F6.6°C 77% 4.0 mph ENE6.4 kmh ENE 6.9 mph11.1 kmh 30.07 in1018.3 mb 0.00 in0.0 mm 0.00 in0.0 mm 0.00 in0.0 mm
05:45 AM 50.7°F10.4°C 43.7°F6.5°C 77% 2.9 mph E4.7 kmh E 6.0 mph9.7 kmh 30.07 in1018.3 mb 0.00 in0.0 mm 0.00 in0.0 mm 0.00 in0.0 mm
05:55 AM 50.5°F10.3°C 43.5°F6.4°C 77% 2.9 mph NE4.7 kmh NE 6.0 mph9.7 kmh 30.07 in1018.3 mb 0.00 in0.0 mm 0.00 in0.0 mm 0.00 in0.0 mm
06:05 AM 50.4°F10.2°C 43.7°F6.5°C 78% 2.0 mph E3.2 kmh E 4.9 mph7.9 kmh 30.07 in1018.3 mb 0.00 in0.0 mm 0.00 in0.0 mm 0.00 in0.0 mm
06:15 AM 50.5°F10.3°C 43.9°F6.6°C 78% 2.9 mph E4.7 kmh E 5.0 mph8.0 kmh 30.07 in1018.3 mb 0.00 in0.0 mm 0.00 in0.0 mm 0.00 in0.0 mm
06:25 AM 50.7°F10.4°C 43.5°F6.4°C 76% 2.0 mph ENE3.2 kmh ENE 4.9 mph7.9 kmh 30.08 in1018.6 mb 0.00 in0.0 mm 0.00 in0.0 mm 0.00 in0.0 mm
06:35 AM 50.4°F10.2°C 43.3°F6.3°C 77% Calm Calm 2.9 mph4.7 kmh 30.08 in1018.6 mb 0.00 in0.0 mm 0.00 in0.0 mm 0.00 in0.0 mm
06:45 AM 49.6°F9.8°C 43.3°F6.3°C 79% 0.9 mph SE1.4 kmh SE 2.0 mph3.2 kmh 30.08 in1018.6 mb 0.00 in0.0 mm 0.00 in0.0 mm 0.00 in0.0 mm
06:55 AM 49.3°F9.6°C 43.0°F6.1°C 79% 0.9 mph SE1.4 kmh SE 0.9 mph1.4 kmh 30.08 in1018.6 mb 0.00 in0.0 mm 0.00 in0.0 mm 0.00 in0.0 mm
07:05 AM 49.5°F9.7°C 43.2°F6.2°C 79% 0.9 mph E1.4 kmh E 3.0 mph4.8 kmh 30.09 in1019.0 mb 0.00 in0.0 mm 0.00 in0.0 mm 0.00 in0.0 mm
07:15 AM 49.3°F9.6°C 43.0°F6.1°C 79% 0.9 mph ESE1.4 kmh ESE 2.0 mph3.2 kmh 30.09 in1019.0 mb 0.00 in0.0 mm 0.00 in0.0 mm 0.00 in0.0 mm
07:25 AM 49.3°F9.6°C 43.3°F6.3°C 80% 0.9 mph SE1.4 kmh SE 2.0 mph3.2 kmh 30.09 in1019.0 mb 0.00 in0.0 mm 0.00 in0.0 mm 0.00 in0.0 mm
07:35 AM 49.6°F9.8°C 43.3°F6.3°C 79% 0.9 mph E1.4 kmh E 3.0 mph4.8 kmh 30.09 in1019.0 mb 0.00 in0.0 mm 0.00 in0.0 mm 0.00 in0.0 mm
07:45 AM 51.3°F10.7°C 44.2°F6.8°C 77% 2.9 mph E4.7 kmh E 6.0 mph9.7 kmh 30.09 in1019.0 mb 0.00 in0.0 mm 0.00 in0.0 mm 0.00 in0.0 mm
07:55 AM 52.9°F11.6°C 44.4°F6.9°C 73% 4.9 mph ENE7.9 kmh ENE 8.9 mph14.3 kmh 30.09 in1019.0 mb 0.00 in0.0 mm 0.00 in0.0 mm 0.00 in0.0 mm
08:05 AM 54.1°F12.3°C 44.6°F7.0°C 70% 4.9 mph E7.9 kmh E 8.1 mph13.0 kmh 30.09 in1019.0 mb 0.00 in0.0 mm 0.00 in0.0 mm 0.00 in0.0 mm
08:15 AM 54.9°F12.7°C 45.0°F7.2°C 69% 4.0 mph E6.4 kmh E 8.0 mph12.9 kmh 30.09 in1019.0 mb 0.00 in0.0 mm 0.00 in0.0 mm 0.00 in0.0 mm
08:25 AM 55.9°F13.3°C 45.1°F7.3°C 67% 4.9 mph ENE7.9 kmh ENE 6.9 mph11.1 kmh 30.09 in1019.0 mb 0.00 in0.0 mm 0.00 in0.0 mm 0.00 in0.0 mm
08:35 AM 56.8°F13.8°C 45.1°F7.3°C 65% 4.9 mph ENE7.9 kmh ENE 8.0 mph12.9 kmh 30.09 in1019.0 mb 0.00 in0.0 mm 0.00 in0.0 mm 0.00 in0.0 mm
08:45 AM 58.3°F14.6°C 46.6°F8.1°C 65% 2.9 mph ENE4.7 kmh ENE 6.0 mph9.7 kmh 30.10 in1019.3 mb 0.00 in0.0 mm 0.00 in0.0 mm 0.00 in0.0 mm
08:55 AM 59.5°F15.3°C 46.6°F8.1°C 62% 4.0 mph NE6.4 kmh NE 6.9 mph11.1 kmh 30.10 in1019.3 mb 0.00 in0.0 mm 0.00 in0.0 mm 0.00 in0.0 mm
09:05 AM 61.0°F16.1°C 46.6°F8.1°C 59% 4.0 mph NE6.4 kmh NE 6.9 mph11.1 kmh 30.10 in1019.3 mb 0.00 in0.0 mm 0.00 in0.0 mm 0.00 in0.0 mm
09:15 AM 62.2°F16.8°C 46.8°F8.2°C 57% 4.0 mph ENE6.4 kmh ENE 6.9 mph11.1 kmh 30.11 in1019.6 mb 0.00 in0.0 mm 0.00 in0.0 mm 0.00 in0.0 mm
09:25 AM 63.9°F17.7°C 46.9°F8.3°C 54% 2.9 mph NE4.7 kmh NE 6.9 mph11.1 kmh 30.11 in1019.6 mb 0.00 in0.0 mm 0.00 in0.0 mm 0.00 in0.0 mm
09:35 AM 65.1°F18.4°C 47.1°F8.4°C 52% 2.0 mph NE3.2 kmh NE 4.0 mph6.4 kmh 30.11 in1019.6 mb 0.00 in0.0 mm 0.00 in0.0 mm 0.00 in0.0 mm
09:45 AM 66.9°F19.4°C 47.1°F8.4°C 49% 2.0 mph ENE3.2 kmh ENE 6.0 mph9.7 kmh 30.11 in1019.6 mb 0.00 in0.0 mm 0.00 in0.0 mm 0.00 in0.0 mm
09:55 AM 68.2°F20.1°C 47.7°F8.7°C 48% 2.9 mph ENE4.7 kmh ENE 6.9 mph11.1 kmh 30.11 in1019.6 mb 0.00 in0.0 mm 0.00 in0.0 mm 0.00 in0.0 mm
10:05 AM 69.6°F20.9°C 48.6°F9.2°C 47% 2.9 mph NE4.7 kmh NE 6.0 mph9.7 kmh 30.10 in1019.3 mb 0.00 in0.0 mm 0.00 in0.0 mm 0.00 in0.0 mm
10:15 AM 70.9°F21.6°C 47.3°F8.5°C 43% 2.9 mph ENE4.7 kmh ENE 7.0 mph11.3 kmh 30.10 in1019.3 mb 0.00 in0.0 mm 0.00 in0.0 mm 0.00 in0.0 mm
10:25 AM 72.0°F22.2°C 46.4°F8.0°C 40% 4.0 mph N6.4 kmh N 6.9 mph11.1 kmh 30.10 in1019.3 mb 0.00 in0.0 mm 0.00 in0.0 mm 0.00 in0.0 mm
10:35 AM 73.4°F23.0°C 46.2°F7.9°C 38% 2.9 mph ENE4.7 kmh ENE 6.0 mph9.7 kmh 30.10 in1019.3 mb 0.00 in0.0 mm 0.00 in0.0 mm 0.00 in0.0 mm
10:45 AM 74.8°F23.8°C 46.8°F8.2°C 37% 2.9 mph NE4.7 kmh NE 6.0 mph9.7 kmh 30.09 in1019.0 mb 0.00 in0.0 mm 0.00 in0.0 mm 0.00 in0.0 mm
10:55 AM 75.7°F24.3°C 46.2°F7.9°C 35% 2.9 mph NE4.7 kmh NE 6.0 mph9.7 kmh 30.09 in1019.0 mb 0.00 in0.0 mm 0.00 in0.0 mm 0.00 in0.0 mm
11:05 AM 76.8°F24.9°C 45.5°F7.5°C 33% 2.0 mph NE3.2 kmh NE 8.1 mph13.0 kmh 30.08 in1018.6 mb 0.00 in0.0 mm 0.00 in0.0 mm 0.00 in0.0 mm
11:15 AM 77.5°F25.3°C 45.3°F7.4°C 32% 2.9 mph ENE4.7 kmh ENE 4.9 mph7.9 kmh 30.07 in1018.3 mb 0.00 in0.0 mm 0.00 in0.0 mm 0.00 in0.0 mm
11:25 AM 78.8°F26.0°C 45.7°F7.6°C 31% 2.0 mph E3.2 kmh E 6.0 mph9.7 kmh 30.06 in1017.9 mb 0.00 in0.0 mm 0.00 in0.0 mm 0.00 in0.0 mm
11:35 AM 79.5°F26.4°C 46.2°F7.9°C 31% 2.9 mph NE4.7 kmh NE 6.0 mph9.7 kmh 30.06 in1017.9 mb 0.00 in0.0 mm 0.00 in0.0 mm 0.00 in0.0 mm
11:45 AM 80.2°F26.8°C 46.9°F8.3°C 31% 4.0 mph N6.4 kmh N 10.1 mph16.3 kmh 30.05 in1017.6 mb 0.00 in0.0 mm 0.00 in0.0 mm 0.00 in0.0 mm
11:55 AM 81.3°F27.4°C 46.9°F8.3°C 30% 2.0 mph NE3.2 kmh NE 6.0 mph9.7 kmh 30.04 in1017.3 mb 0.00 in0.0 mm 0.00 in0.0 mm 0.00 in0.0 mm
12:05 PM 81.5°F27.5°C 46.2°F7.9°C 29% 4.0 mph NE6.4 kmh NE 6.9 mph11.1 kmh 30.04 in1017.3 mb 0.00 in0.0 mm 0.00 in0.0 mm 0.00 in0.0 mm
12:15 PM 82.0°F27.8°C 44.8°F7.1°C 27% 2.9 mph NE4.7 kmh NE 8.1 mph13.0 kmh 30.03 in1016.9 mb 0.00 in0.0 mm 0.00 in0.0 mm 0.00 in0.0 mm
12:25 PM 82.9°F28.3°C 43.5°F6.4°C 25% 2.0 mph NE3.2 kmh NE 4.9 mph7.9 kmh 30.03 in1016.9 mb 0.00 in0.0 mm 0.00 in0.0 mm 0.00 in0.0 mm
12:35 PM 83.1°F28.4°C 41.5°F5.3°C 23% 2.0 mph N3.2 kmh N 6.0 mph9.7 kmh 30.03 in1016.9 mb 0.00 in0.0 mm 0.00 in0.0 mm 0.00 in0.0 mm
12:45 PM 83.7°F28.7°C 41.9°F5.5°C 23% 0.9 mph N1.4 kmh N 4.9 mph7.9 kmh 30.02 in1016.6 mb 0.00 in0.0 mm 0.00 in0.0 mm 0.00 in0.0 mm
12:55 PM 83.8°F28.8°C 41.0°F5.0°C 22% 2.9 mph NW4.7 kmh NW 6.0 mph9.7 kmh 30.01 in1016.3 mb 0.00 in0.0 mm 0.00 in0.0 mm 0.00 in0.0 mm
01:05 PM 84.2°F29.0°C 40.1°F4.5°C 21% 2.0 mph NNW3.2 kmh NNW 4.0 mph6.4 kmh 30.01 in1016.3 mb 0.00 in0.0 mm 0.00 in0.0 mm 0.00 in0.0 mm
01:15 PM 84.4°F29.1°C 41.4°F5.2°C 22% 2.0 mph ENE3.2 kmh ENE 6.0 mph9.7 kmh 30.01 in1016.3 mb 0.00 in0.0 mm 0.00 in0.0 mm 0.00 in0.0 mm
01:25 PM 84.6°F29.2°C 39.0°F3.9°C 20% 2.0 mph W3.2 kmh W 6.0 mph9.7 kmh 30.01 in1016.3 mb 0.00 in0.0 mm 0.00 in0.0 mm 0.00 in0.0 mm
01:35 PM 84.9°F29.4°C 43.0°F6.1°C 23% 2.0 mph N3.2 kmh N 8.1 mph13.0 kmh 30.00 in1015.9 mb 0.00 in0.0 mm 0.00 in0.0 mm 0.00 in0.0 mm
01:45 PM 84.7°F29.3°C 41.7°F5.4°C 22% 2.9 mph E4.7 kmh E 6.0 mph9.7 kmh 30.00 in1015.9 mb 0.00 in0.0 mm 0.00 in0.0 mm 0.00 in0.0 mm
01:55 PM 84.9°F29.4°C 40.6°F4.8°C 21% 2.0 mph NW3.2 kmh NW 6.0 mph9.7 kmh 30.00 in1015.9 mb 0.00 in0.0 mm 0.00 in0.0 mm 0.00 in0.0 mm
02:06 PM 85.3°F29.6°C 42.1°F5.6°C 22% 2.9 mph NNW4.7 kmh NNW 6.0 mph9.7 kmh 29.99 in1015.6 mb 0.00 in0.0 mm 0.00 in0.0 mm 0.00 in0.0 mm
02:16 PM 85.5°F29.7°C 42.3°F5.7°C 22% 2.9 mph N4.7 kmh N 8.1 mph13.0 kmh 29.99 in1015.6 mb 0.00 in0.0 mm 0.00 in0.0 mm 0.00 in0.0 mm
02:26 PM 85.6°F29.8°C 42.4°F5.8°C 22% 2.0 mph NNE3.2 kmh NNE 7.0 mph11.3 kmh 29.99 in1015.6 mb 0.00 in0.0 mm 0.00 in0.0 mm 0.00 in0.0 mm
02:36 PM 86.2°F30.1°C 40.5°F4.7°C 20% 0.9 mph NNW1.4 kmh NNW 4.0 mph6.4 kmh 29.99 in1015.6 mb 0.00 in0.0 mm 0.00 in0.0 mm 0.00 in0.0 mm
02:46 PM 86.4°F30.2°C 40.6°F4.8°C 20% 0.9 mph NNW1.4 kmh NNW 4.0 mph6.4 kmh 29.99 in1015.6 mb 0.00 in0.0 mm 0.00 in0.0 mm 0.00 in0.0 mm
02:56 PM 86.4°F30.2°C 41.9°F5.5°C 21% 0.9 mph NNW1.4 kmh NNW 4.0 mph6.4 kmh 29.98 in1015.2 mb 0.00 in0.0 mm 0.00 in0.0 mm 0.00 in0.0 mm
03:06 PM 86.0°F30.0°C 40.3°F4.6°C 20% 2.0 mph NE3.2 kmh NE 6.0 mph9.7 kmh 29.98 in1015.2 mb 0.00 in0.0 mm 0.00 in0.0 mm 0.00 in0.0 mm
03:16 PM 86.5°F30.3°C 41.9°F5.5°C 21% 0.9 mph NNW1.4 kmh NNW 2.9 mph4.7 kmh 29.99 in1015.6 mb 0.00 in0.0 mm 0.00 in0.0 mm 0.00 in0.0 mm
03:26 PM 85.5°F29.7°C 42.3°F5.7°C 22% 2.9 mph NNW4.7 kmh NNW 6.0 mph9.7 kmh 29.99 in1015.6 mb 0.00 in0.0 mm 0.00 in0.0 mm 0.00 in0.0 mm
03:36 PM 85.8°F29.9°C 42.6°F5.9°C 22% 0.9 mph NW1.4 kmh NW 4.9 mph7.9 kmh 29.99 in1015.6 mb 0.00 in0.0 mm 0.00 in0.0 mm 0.00 in0.0 mm
03:46 PM 84.7°F29.3°C 45.0°F7.2°C 25% 0.9 mph S1.4 kmh S 4.0 mph6.4 kmh 29.98 in1015.2 mb 0.00 in0.0 mm 0.00 in0.0 mm 0.00 in0.0 mm
03:56 PM 84.6°F29.2°C 45.0°F7.2°C 25% Calm Calm 2.9 mph4.7 kmh 29.99 in1015.6 mb 0.00 in0.0 mm 0.00 in0.0 mm 0.00 in0.0 mm
04:06 PM 82.2°F27.9°C 43.9°F6.6°C 26% 2.9 mph S4.7 kmh S 6.0 mph9.7 kmh 29.99 in1015.6 mb 0.00 in0.0 mm 0.00 in0.0 mm 0.00 in0.0 mm
04:16 PM 80.8°F27.1°C 43.7°F6.5°C 27% 2.9 mph SW4.7 kmh SW 6.0 mph9.7 kmh 29.99 in1015.6 mb 0.00 in0.0 mm 0.00 in0.0 mm 0.00 in0.0 mm
04:26 PM 79.3°F26.3°C 46.9°F8.3°C 32% 2.0 mph SSE3.2 kmh SSE 7.0 mph11.3 kmh 29.99 in1015.6 mb 0.00 in0.0 mm 0.00 in0.0 mm 0.00 in0.0 mm
04:36 PM 77.9°F25.5°C 47.3°F8.5°C 34% 2.9 mph SSE4.7 kmh SSE 7.0 mph11.3 kmh 29.99 in1015.6 mb 0.00 in0.0 mm 0.00 in0.0 mm 0.00 in0.0 mm
04:46 PM 76.6°F24.8°C 47.7°F8.7°C 36% 2.0 mph S3.2 kmh S 5.0 mph8.0 kmh 30.00 in1015.9 mb 0.00 in0.0 mm 0.00 in0.0 mm 0.00 in0.0 mm
04:56 PM 74.8°F23.8°C 48.2°F9.0°C 39% 0.9 mph SE1.4 kmh SE 2.0 mph3.2 kmh 30.00 in1015.9 mb 0.00 in0.0 mm 0.00 in0.0 mm 0.00 in0.0 mm
05:06 PM 73.0°F22.8°C 48.6°F9.2°C 42% 0.9 mph SE1.4 kmh SE 2.9 mph4.7 kmh 30.00 in1015.9 mb 0.00 in0.0 mm 0.00 in0.0 mm 0.00 in0.0 mm
05:16 PM 71.1°F21.7°C 49.8°F9.9°C 47% 0.9 mph SE1.4 kmh SE 2.9 mph4.7 kmh 30.01 in1016.3 mb 0.00 in0.0 mm 0.00 in0.0 mm 0.00 in0.0 mm
05:26 PM 70.0°F21.1°C 50.0°F10.0°C 49% Calm Calm -- 30.01 in1016.3 mb 0.00 in0.0 mm 0.00 in0.0 mm 0.00 in0.0 mm
05:36 PM 68.7°F20.4°C 49.3°F9.6°C 50% Calm Calm 1.0 mph1.6 kmh 30.01 in1016.3 mb 0.00 in0.0 mm 0.00 in0.0 mm 0.00 in0.0 mm
05:46 PM 67.6°F19.8°C 49.5°F9.7°C 52% Calm Calm 2.0 mph3.2 kmh 30.02 in1016.6 mb 0.00 in0.0 mm 0.00 in0.0 mm 0.00 in0.0 mm
05:56 PM 66.0°F18.9°C 49.8°F9.9°C 56% 0.9 mph SE1.4 kmh SE 3.0 mph4.8 kmh 30.02 in1016.6 mb 0.00 in0.0 mm 0.00 in0.0 mm 0.00 in0.0 mm
06:06 PM 64.4°F18.0°C 49.3°F9.6°C 58% 0.9 mph E1.4 kmh E 2.0 mph3.2 kmh 30.02 in1016.6 mb 0.00 in0.0 mm 0.00 in0.0 mm 0.00 in0.0 mm
06:16 PM 63.9°F17.7°C 49.6°F9.8°C 60% Calm Calm 0.9 mph1.4 kmh 30.02 in1016.6 mb 0.00 in0.0 mm 0.00 in0.0 mm 0.00 in0.0 mm
06:26 PM 63.7°F17.6°C 48.6°F9.2°C 58% Calm Calm 0.9 mph1.4 kmh 30.03 in1016.9 mb 0.00 in0.0 mm 0.00 in0.0 mm 0.00 in0.0 mm
06:36 PM 62.8°F17.1°C 48.7°F9.3°C 60% 0.9 mph SE1.4 kmh SE 2.0 mph3.2 kmh 30.03 in1016.9 mb 0.00 in0.0 mm 0.00 in0.0 mm 0.00 in0.0 mm
06:46 PM 62.4°F16.9°C 48.7°F9.3°C 61% 0.9 mph SE1.4 kmh SE 2.0 mph3.2 kmh 30.03 in1016.9 mb 0.00 in0.0 mm 0.00 in0.0 mm 0.00 in0.0 mm
06:56 PM 61.9°F16.6°C 48.2°F9.0°C 61% Calm Calm 2.0 mph3.2 kmh 30.03 in1016.9 mb 0.00 in0.0 mm 0.00 in0.0 mm 0.00 in0.0 mm
07:06 PM 62.8°F17.1°C 46.4°F8.0°C 55% 0.9 mph ENE1.4 kmh ENE 4.0 mph6.4 kmh 30.03 in1016.9 mb 0.00 in0.0 mm 0.00 in0.0 mm 0.00 in0.0 mm
07:16 PM 63.1°F17.3°C 45.7°F7.6°C 53% 2.0 mph E3.2 kmh E 5.0 mph8.0 kmh 30.03 in1016.9 mb 0.00 in0.0 mm 0.00 in0.0 mm 0.00 in0.0 mm
07:26 PM 62.4°F16.9°C 45.1°F7.3°C 53% 2.0 mph ENE3.2 kmh ENE 2.9 mph4.7 kmh 30.03 in1016.9 mb 0.00 in0.0 mm 0.00 in0.0 mm 0.00 in0.0 mm
07:36 PM 61.5°F16.4°C 45.1°F7.3°C 55% 0.9 mph E1.4 kmh E 4.0 mph6.4 kmh 30.03 in1016.9 mb 0.00 in0.0 mm 0.00 in0.0 mm 0.00 in0.0 mm
07:46 PM 61.3°F16.3°C 44.1°F6.7°C 53% 2.0 mph E3.2 kmh E 4.9 mph7.9 kmh 30.03 in1016.9 mb 0.00 in0.0 mm 0.00 in0.0 mm 0.00 in0.0 mm
07:56 PM 61.2°F16.2°C 44.4°F6.9°C 54% 2.9 mph NE4.7 kmh NE 4.9 mph7.9 kmh 30.04 in1017.3 mb 0.00 in0.0 mm 0.00 in0.0 mm 0.00 in0.0 mm
08:06 PM 60.6°F15.9°C 44.4°F6.9°C 55% 2.0 mph NE3.2 kmh NE 4.9 mph7.9 kmh 30.04 in1017.3 mb 0.00 in0.0 mm 0.00 in0.0 mm 0.00 in0.0 mm
08:16 PM 60.4°F15.8°C 44.2°F6.8°C 55% 2.0 mph ENE3.2 kmh ENE 6.0 mph9.7 kmh 30.04 in1017.3 mb 0.00 in0.0 mm 0.00 in0.0 mm 0.00 in0.0 mm
08:26 PM 60.3°F15.7°C 43.0°F6.1°C 53% 2.9 mph E4.7 kmh E 4.9 mph7.9 kmh 30.04 in1017.3 mb 0.00 in0.0 mm 0.00 in0.0 mm 0.00 in0.0 mm
08:36 PM 60.1°F15.6°C 43.3°F6.3°C 54% 2.0 mph SE3.2 kmh SE 4.9 mph7.9 kmh 30.05 in1017.6 mb 0.00 in0.0 mm 0.00 in0.0 mm 0.00 in0.0 mm
08:46 PM 57.7°F14.3°C 43.9°F6.6°C 60% Calm Calm 2.0 mph3.2 kmh 30.05 in1017.6 mb 0.00 in0.0 mm 0.00 in0.0 mm 0.00 in0.0 mm
08:56 PM 58.5°F14.7°C 42.8°F6.0°C 56% 2.9 mph NE4.7 kmh NE 4.9 mph7.9 kmh 30.06 in1017.9 mb 0.00 in0.0 mm 0.00 in0.0 mm 0.00 in0.0 mm
09:06 PM 58.8°F14.9°C 42.6°F5.9°C 55% 2.9 mph E4.7 kmh E 6.0 mph9.7 kmh 30.06 in1017.9 mb 0.00 in0.0 mm 0.00 in0.0 mm 0.00 in0.0 mm
09:16 PM 58.5°F14.7°C 42.4°F5.8°C 55% 0.9 mph ENE1.4 kmh ENE 2.9 mph4.7 kmh 30.06 in1017.9 mb 0.00 in0.0 mm 0.00 in0.0 mm 0.00 in0.0 mm
09:26 PM 58.3°F14.6°C 42.3°F5.7°C 55% 0.9 mph NE1.4 kmh NE 2.9 mph4.7 kmh 30.06 in1017.9 mb 0.00 in0.0 mm 0.00 in0.0 mm 0.00 in0.0 mm
09:36 PM 57.7°F14.3°C 41.7°F5.4°C 55% 2.0 mph ENE3.2 kmh ENE 4.9 mph7.9 kmh 30.07 in1018.3 mb 0.00 in0.0 mm 0.00 in0.0 mm 0.00 in0.0 mm
09:46 PM 57.6°F14.2°C 42.4°F5.8°C 57% 2.9 mph ENE4.7 kmh ENE 6.0 mph9.7 kmh 30.07 in1018.3 mb 0.00 in0.0 mm 0.00 in0.0 mm 0.00 in0.0 mm
09:56 PM 57.2°F14.0°C 42.6°F5.9°C 58% 4.0 mph ENE6.4 kmh ENE 6.9 mph11.1 kmh 30.07 in1018.3 mb 0.00 in0.0 mm 0.00 in0.0 mm 0.00 in0.0 mm
10:06 PM 57.0°F13.9°C 42.4°F5.8°C 58% 2.9 mph E4.7 kmh E 6.9 mph11.1 kmh 30.08 in1018.6 mb 0.00 in0.0 mm 0.00 in0.0 mm 0.00 in0.0 mm
10:16 PM 56.7°F13.7°C 42.4°F5.8°C 59% 2.9 mph ENE4.7 kmh ENE 6.0 mph9.7 kmh 30.08 in1018.6 mb 0.00 in0.0 mm 0.00 in0.0 mm 0.00 in0.0 mm
10:26 PM 56.5°F13.6°C 42.8°F6.0°C 60% 2.9 mph E4.7 kmh E 6.0 mph9.7 kmh 30.08 in1018.6 mb 0.00 in0.0 mm 0.00 in0.0 mm 0.00 in0.0 mm
10:36 PM 55.8°F13.2°C 42.4°F5.8°C 61% 2.9 mph ENE4.7 kmh ENE 7.0 mph11.3 kmh 30.08 in1018.6 mb 0.00 in0.0 mm 0.00 in0.0 mm 0.00 in0.0 mm
10:46 PM 56.1°F13.4°C 42.4°F5.8°C 60% 4.0 mph NE6.4 kmh NE 6.9 mph11.1 kmh 30.08 in1018.6 mb 0.00 in0.0 mm 0.00 in0.0 mm 0.00 in0.0 mm
10:56 PM 56.5°F13.6°C 42.3°F5.7°C 59% 2.9 mph NE4.7 kmh NE 6.0 mph9.7 kmh 30.08 in1018.6 mb 0.00 in0.0 mm 0.00 in0.0 mm 0.00 in0.0 mm
11:06 PM 56.3°F13.5°C 42.1°F5.6°C 59% 2.9 mph NE4.7 kmh NE 6.0 mph9.7 kmh 30.08 in1018.6 mb 0.00 in0.0 mm 0.00 in0.0 mm 0.00 in0.0 mm
11:16 PM 56.5°F13.6°C 42.3°F5.7°C 59% 2.9 mph E4.7 kmh E 4.9 mph7.9 kmh 30.08 in1018.6 mb 0.00 in0.0 mm 0.00 in0.0 mm 0.00 in0.0 mm
11:26 PM 56.1°F13.4°C 41.9°F5.5°C 59% 2.9 mph ENE4.7 kmh ENE 6.0 mph9.7 kmh 30.07 in1018.3 mb 0.00 in0.0 mm 0.00 in0.0 mm 0.00 in0.0 mm
11:36 PM 56.3°F13.5°C 42.1°F5.6°C 59% 2.9 mph ENE4.7 kmh ENE 4.9 mph7.9 kmh 30.07 in1018.3 mb 0.00 in0.0 mm 0.00 in0.0 mm 0.00 in0.0 mm
11:46 PM 56.1°F13.4°C 41.9°F5.5°C 59% 2.9 mph NE4.7 kmh NE 6.0 mph9.7 kmh 30.07 in1018.3 mb 0.00 in0.0 mm 0.00 in0.0 mm 0.00 in0.0 mm
11:56 PM 56.3°F13.5°C 41.7°F5.4°C 58% 2.0 mph E3.2 kmh E 4.0 mph6.4 kmh 30.07 in1018.3 mb 0.00 in0.0 mm 0.00 in0.0 mm 0.00 in0.0 mm